Terminal Aerodrome Forecast
Issued by NWS

Home | Current Version | Previous Version | Text Only | Print | Product List | Glossary On
Versions: 1 2 3 4 5 6 7 8 9 10 11 12 13 14 15 16 17 18 19 20 21 22 23 24 25 26 27 28 29 30 31 32 33 34 35 36
000
FTUS44 KLIX 182300
TAFHUM
TAF
KHUM 182320Z 1900/1924 VRB03KT P6SM VCSH SCT025 BKN100
      TEMPO 1900/1902 3SM -SHRA BKN025
     FM190800 10005KT 4SM BR SCT020 BKN050
      TEMPO 1908/1912 2SM BR BKN005
     FM191300 09006KT P6SM SCT030 BKN070
     FM191500 10010KT P6SM VCTS BKN035CB=

USA.gov is the U.S. government's official web portal to all federal, state and local government web resources and services.